logo dgac
Domingo 23 de Septiembre del 2018
Buscar por aerodromo o helipuerto
Ingrese nombre de aeródromo, localidad o designador OACI:
METAR del 23-09-2018 a las 19:00 UTC
METAR SCRD 231900Z 17013KT CAVOK 17/09 Q1018
Viento: dirección 170 grados, velocidad 13 nudos
Visibilidad: 10 km o más,
    sin nubes bajo los 5.000 pies o bajo del MSA (Mínimo de Seguridad del Aeródromo),
    sin cumulonimbus, y sin fenómenos de tiempo significativo en el aeródromo o alrededores
Temperatura: 17 °C
Rocío: 9 °C
Humedad_relativa: 59%
Presión: 1018 hPa
METAR del 23-09-2018 a las 18:00 UTC
METAR SCRD 231800Z 21013KT CAVOK 18/09 Q1018
Viento: dirección 210 grados, velocidad 13 nudos
Visibilidad: 10 km o más,
    sin nubes bajo los 5.000 pies o bajo del MSA (Mínimo de Seguridad del Aeródromo),
    sin cumulonimbus, y sin fenómenos de tiempo significativo en el aeródromo o alrededores
Temperatura: 18 °C
Rocío: 9 °C
Humedad_relativa: 56%
Presión: 1018 hPa
METAR del 23-09-2018 a las 18:00 UTC
METAR SCRD 231800Z 21013KT CAVOK 18/09 Q1018
Viento: dirección 210 grados, velocidad 13 nudos
Visibilidad: 10 km o más,
    sin nubes bajo los 5.000 pies o bajo del MSA (Mínimo de Seguridad del Aeródromo),
    sin cumulonimbus, y sin fenómenos de tiempo significativo en el aeródromo o alrededores
Temperatura: 18 °C
Rocío: 9 °C
Humedad_relativa: 56%
Presión: 1018 hPa
METAR del 23-09-2018 a las 17:00 UTC
METAR SCRD 231700Z 19013KT CAVOK 18/09 Q1019
Viento: dirección 190 grados, velocidad 13 nudos
Visibilidad: 10 km o más,
    sin nubes bajo los 5.000 pies o bajo del MSA (Mínimo de Seguridad del Aeródromo),
    sin cumulonimbus, y sin fenómenos de tiempo significativo en el aeródromo o alrededores
Temperatura: 18 °C
Rocío: 9 °C
Humedad_relativa: 56%
Presión: 1019 hPa
METAR del 23-09-2018 a las 16:00 UTC
METAR SCRD 231600Z 19010KT CAVOK 17/06 Q1020
Viento: dirección 190 grados, velocidad 10 nudos
Visibilidad: 10 km o más,
    sin nubes bajo los 5.000 pies o bajo del MSA (Mínimo de Seguridad del Aeródromo),
    sin cumulonimbus, y sin fenómenos de tiempo significativo en el aeródromo o alrededores
Temperatura: 17 °C
Rocío: 6 °C
Humedad_relativa: 48%
Presión: 1020 hPa
METAR del 23-09-2018 a las 15:00 UTC
METAR SCRD 231500Z 21013KT CAVOK 16/07 Q1020
Viento: dirección 210 grados, velocidad 13 nudos
Visibilidad: 10 km o más,
    sin nubes bajo los 5.000 pies o bajo del MSA (Mínimo de Seguridad del Aeródromo),
    sin cumulonimbus, y sin fenómenos de tiempo significativo en el aeródromo o alrededores
Temperatura: 16 °C
Rocío: 7 °C
Humedad_relativa: 55%
Presión: 1020 hPa
METAR del 23-09-2018 a las 14:00 UTC
METAR SCRD 231400Z 16012KT CAVOK 15/06 Q1020
Viento: dirección 160 grados, velocidad 12 nudos
Visibilidad: 10 km o más,
    sin nubes bajo los 5.000 pies o bajo del MSA (Mínimo de Seguridad del Aeródromo),
    sin cumulonimbus, y sin fenómenos de tiempo significativo en el aeródromo o alrededores
Temperatura: 15 °C
Rocío: 6 °C
Humedad_relativa: 55%
Presión: 1020 hPa
METAR del 23-09-2018 a las 13:00 UTC
METAR SCRD 231300Z 17008KT CAVOK 13/06 Q1020
Viento: dirección 170 grados, velocidad 8 nudos
Visibilidad: 10 km o más,
    sin nubes bajo los 5.000 pies o bajo del MSA (Mínimo de Seguridad del Aeródromo),
    sin cumulonimbus, y sin fenómenos de tiempo significativo en el aeródromo o alrededores
Temperatura: 13 °C
Rocío: 6 °C
Humedad_relativa: 62%
Presión: 1020 hPa
METAR del 23-09-2018 a las 12:00 UTC
METAR SCRD 231200Z 18006KT CAVOK 10/07 Q1020
Viento: dirección 180 grados, velocidad 6 nudos
Visibilidad: 10 km o más,
    sin nubes bajo los 5.000 pies o bajo del MSA (Mínimo de Seguridad del Aeródromo),
    sin cumulonimbus, y sin fenómenos de tiempo significativo en el aeródromo o alrededores
Temperatura: 10 °C
Rocío: 7 °C
Humedad_relativa: 82%
Presión: 1020 hPa
METAR del 22-09-2018 a las 23:00 UTC
METAR SCRD 222300Z 18005KT 7000 VCFG SCT010 BKN230 14/11 Q1018
Viento: dirección 180 grados, velocidad 5 nudos
Visibilidad: 7000 metros
En los alrededores, Niebla
Nubes: Nubosidad parcial a 1000 pies sobre el nivel del aeródromo
Nubes: Nublado a 23000 pies sobre el nivel del aeródromo
Temperatura: 14 °C
Rocío: 11 °C
Humedad_relativa: 82%
Presión: 1018 hPa